sensor_id;sensor_type;location;lat;lon;timestamp;P1;durP1;ratioP1;P2;durP2;ratioP2
54679;SDS011;40578;53.178;5.846;2023-08-12T00:01:39;16.97;;;8.80;;
54679;SDS011;40578;53.178;5.846;2023-08-12T00:04:04;12.70;;;8.60;;
54679;SDS011;40578;53.178;5.846;2023-08-12T00:06:30;13.47;;;7.70;;
54679;SDS011;40578;53.178;5.846;2023-08-12T00:08:56;12.90;;;8.07;;
54679;SDS011;40578;53.178;5.846;2023-08-12T00:11:21;15.20;;;8.03;;
54679;SDS011;40578;53.178;5.846;2023-08-12T00:13:47;15.20;;;7.90;;
54679;SDS011;40578;53.178;5.846;2023-08-12T00:16:12;12.27;;;7.77;;
54679;SDS011;40578;53.178;5.846;2023-08-12T00:18:38;12.30;;;7.67;;
54679;SDS011;40578;53.178;5.846;2023-08-12T00:21:06;9.67;;;7.03;;
54679;SDS011;40578;53.178;5.846;2023-08-12T00:23:36;13.23;;;7.55;;
54679;SDS011;40578;53.178;5.846;2023-08-12T00:26:03;14.00;;;7.20;;
54679;SDS011;40578;53.178;5.846;2023-08-12T00:28:29;13.07;;;7.03;;
54679;SDS011;40578;53.178;5.846;2023-08-12T00:30:54;13.00;;;7.07;;
54679;SDS011;40578;53.178;5.846;2023-08-12T00:33:20;11.53;;;6.67;;
54679;SDS011;40578;53.178;5.846;2023-08-12T00:35:45;11.30;;;6.63;;
54679;SDS011;40578;53.178;5.846;2023-08-12T00:38:11;10.90;;;6.97;;
54679;SDS011;40578;53.178;5.846;2023-08-12T00:40:37;13.00;;;7.33;;
54679;SDS011;40578;53.178;5.846;2023-08-12T00:43:03;12.23;;;6.77;;
54679;SDS011;40578;53.178;5.846;2023-08-12T00:45:28;12.63;;;6.30;;
54679;SDS011;40578;53.178;5.846;2023-08-12T00:47:54;12.80;;;6.03;;
54679;SDS011;40578;53.178;5.846;2023-08-12T00:50:20;14.95;;;6.43;;
54679;SDS011;40578;53.178;5.846;2023-08-12T00:52:46;8.68;;;5.45;;
54679;SDS011;40578;53.178;5.846;2023-08-12T00:55:13;10.07;;;6.07;;
54679;SDS011;40578;53.178;5.846;2023-08-12T00:57:38;12.83;;;6.00;;
54679;SDS011;40578;53.178;5.846;2023-08-12T01:00:04;12.37;;;6.13;;
54679;SDS011;40578;53.178;5.846;2023-08-12T01:02:30;11.38;;;5.95;;
54679;SDS011;40578;53.178;5.846;2023-08-12T01:04:57;12.57;;;6.40;;
54679;SDS011;40578;53.178;5.846;2023-08-12T01:09:48;9.43;;;6.00;;
54679;SDS011;40578;53.178;5.846;2023-08-12T01:14:53;13.95;;;6.38;;
54679;SDS011;40578;53.178;5.846;2023-08-12T01:17:30;10.32;;;6.18;;
54679;SDS011;40578;53.178;5.846;2023-08-12T01:19:56;11.95;;;6.40;;
54679;SDS011;40578;53.178;5.846;2023-08-12T01:22:22;10.95;;;6.63;;
54679;SDS011;40578;53.178;5.846;2023-08-12T01:24:50;12.50;;;6.68;;
54679;SDS011;40578;53.178;5.846;2023-08-12T01:29:44;13.35;;;7.57;;
54679;SDS011;40578;53.178;5.846;2023-08-12T01:32:25;12.40;;;7.40;;
54679;SDS011;40578;53.178;5.846;2023-08-12T01:37:43;10.02;;;7.15;;
54679;SDS011;40578;53.178;5.846;2023-08-12T01:40:10;13.75;;;7.72;;
54679;SDS011;40578;53.178;5.846;2023-08-12T01:42:36;15.73;;;7.60;;
54679;SDS011;40578;53.178;5.846;2023-08-12T01:45:04;14.73;;;8.07;;
54679;SDS011;40578;53.178;5.846;2023-08-12T01:49:57;13.90;;;8.25;;
54679;SDS011;40578;53.178;5.846;2023-08-12T01:52:23;12.13;;;8.07;;
54679;SDS011;40578;53.178;5.846;2023-08-12T01:54:49;12.85;;;8.77;;
54679;SDS011;40578;53.178;5.846;2023-08-12T01:57:15;13.77;;;8.33;;
54679;SDS011;40578;53.178;5.846;2023-08-12T01:59:41;15.70;;;8.97;;
54679;SDS011;40578;53.178;5.846;2023-08-12T02:02:08;13.60;;;9.07;;
54679;SDS011;40578;53.178;5.846;2023-08-12T02:04:34;12.20;;;9.10;;
54679;SDS011;40578;53.178;5.846;2023-08-12T02:07:01;16.52;;;10.27;;
54679;SDS011;40578;53.178;5.846;2023-08-12T02:09:27;15.80;;;9.70;;
54679;SDS011;40578;53.178;5.846;2023-08-12T02:11:53;13.87;;;8.60;;
54679;SDS011;40578;53.178;5.846;2023-08-12T02:14:18;17.23;;;9.70;;
54679;SDS011;40578;53.178;5.846;2023-08-12T02:16:44;14.67;;;9.10;;
54679;SDS011;40578;53.178;5.846;2023-08-12T02:19:09;15.47;;;9.30;;
54679;SDS011;40578;53.178;5.846;2023-08-12T02:21:35;12.97;;;8.90;;
54679;SDS011;40578;53.178;5.846;2023-08-12T02:24:01;17.80;;;9.70;;
54679;SDS011;40578;53.178;5.846;2023-08-12T02:26:26;15.43;;;9.10;;
54679;SDS011;40578;53.178;5.846;2023-08-12T02:28:52;17.13;;;9.40;;
54679;SDS011;40578;53.178;5.846;2023-08-12T02:31:17;17.30;;;10.70;;
54679;SDS011;40578;53.178;5.846;2023-08-12T02:33:43;15.37;;;9.30;;
54679;SDS011;40578;53.178;5.846;2023-08-12T02:36:09;15.50;;;10.20;;
54679;SDS011;40578;53.178;5.846;2023-08-12T02:38:35;17.73;;;10.05;;
54679;SDS011;40578;53.178;5.846;2023-08-12T02:41:00;15.10;;;9.50;;
54679;SDS011;40578;53.178;5.846;2023-08-12T02:43:26;15.33;;;9.87;;
54679;SDS011;40578;53.178;5.846;2023-08-12T02:45:52;14.17;;;9.20;;
54679;SDS011;40578;53.178;5.846;2023-08-12T02:48:17;16.00;;;10.30;;
54679;SDS011;40578;53.178;5.846;2023-08-12T02:50:43;15.17;;;9.77;;
54679;SDS011;40578;53.178;5.846;2023-08-12T02:53:09;15.38;;;10.15;;
54679;SDS011;40578;53.178;5.846;2023-08-12T02:55:35;18.93;;;9.83;;
54679;SDS011;40578;53.178;5.846;2023-08-12T02:58:02;15.30;;;9.52;;
54679;SDS011;40578;53.178;5.846;2023-08-12T03:00:28;16.90;;;9.75;;
54679;SDS011;40578;53.178;5.846;2023-08-12T03:02:54;16.77;;;9.23;;
54679;SDS011;40578;53.178;5.846;2023-08-12T03:05:20;14.53;;;9.43;;
54679;SDS011;40578;53.178;5.846;2023-08-12T03:07:46;15.07;;;9.40;;
54679;SDS011;40578;53.178;5.846;2023-08-12T03:10:12;13.67;;;8.97;;
54679;SDS011;40578;53.178;5.846;2023-08-12T03:12:38;15.98;;;9.18;;
54679;SDS011;40578;53.178;5.846;2023-08-12T03:15:04;15.87;;;8.93;;
54679;SDS011;40578;53.178;5.846;2023-08-12T03:17:31;14.80;;;9.05;;
54679;SDS011;40578;53.178;5.846;2023-08-12T03:19:57;16.07;;;9.23;;
54679;SDS011;40578;53.178;5.846;2023-08-12T03:22:28;16.90;;;8.50;;
54679;SDS011;40578;53.178;5.846;2023-08-12T03:24:54;13.00;;;8.25;;
54679;SDS011;40578;53.178;5.846;2023-08-12T03:27:19;15.00;;;9.07;;
54679;SDS011;40578;53.178;5.846;2023-08-12T03:29:45;13.40;;;8.70;;
54679;SDS011;40578;53.178;5.846;2023-08-12T03:32:11;14.82;;;9.13;;
54679;SDS011;40578;53.178;5.846;2023-08-12T03:34:37;18.83;;;9.97;;
54679;SDS011;40578;53.178;5.846;2023-08-12T03:37:02;15.13;;;9.80;;
54679;SDS011;40578;53.178;5.846;2023-08-12T03:39:28;15.75;;;9.05;;
54679;SDS011;40578;53.178;5.846;2023-08-12T03:41:54;15.27;;;9.40;;
54679;SDS011;40578;53.178;5.846;2023-08-12T03:44:20;17.60;;;10.00;;
54679;SDS011;40578;53.178;5.846;2023-08-12T03:46:45;22.27;;;9.93;;
54679;SDS011;40578;53.178;5.846;2023-08-12T03:49:11;15.30;;;9.87;;
54679;SDS011;40578;53.178;5.846;2023-08-12T03:51:36;20.23;;;10.43;;
54679;SDS011;40578;53.178;5.846;2023-08-12T03:54:02;16.90;;;9.57;;
54679;SDS011;40578;53.178;5.846;2023-08-12T03:56:29;16.02;;;10.25;;
54679;SDS011;40578;53.178;5.846;2023-08-12T03:58:54;16.70;;;10.10;;
54679;SDS011;40578;53.178;5.846;2023-08-12T04:01:20;17.30;;;9.77;;
54679;SDS011;40578;53.178;5.846;2023-08-12T04:03:46;17.50;;;9.88;;
54679;SDS011;40578;53.178;5.846;2023-08-12T04:06:12;16.07;;;10.73;;
54679;SDS011;40578;53.178;5.846;2023-08-12T04:08:37;18.00;;;11.63;;
54679;SDS011;40578;53.178;5.846;2023-08-12T04:11:03;16.90;;;10.37;;
54679;SDS011;40578;53.178;5.846;2023-08-12T04:13:29;18.80;;;10.90;;
54679;SDS011;40578;53.178;5.846;2023-08-12T04:15:55;17.87;;;10.47;;
54679;SDS011;40578;53.178;5.846;2023-08-12T04:18:21;16.83;;;10.10;;
54679;SDS011;40578;53.178;5.846;2023-08-12T04:20:48;17.50;;;10.32;;
54679;SDS011;40578;53.178;5.846;2023-08-12T04:23:14;18.23;;;10.32;;
54679;SDS011;40578;53.178;5.846;2023-08-12T04:25:42;16.63;;;9.67;;
54679;SDS011;40578;53.178;5.846;2023-08-12T04:28:09;14.00;;;9.10;;
54679;SDS011;40578;53.178;5.846;2023-08-12T04:30:34;15.00;;;9.13;;
54679;SDS011;40578;53.178;5.846;2023-08-12T04:33:00;14.00;;;9.40;;
54679;SDS011;40578;53.178;5.846;2023-08-12T04:35:26;16.97;;;10.37;;
54679;SDS011;40578;53.178;5.846;2023-08-12T04:37:51;14.10;;;10.13;;
54679;SDS011;40578;53.178;5.846;2023-08-12T04:40:17;18.70;;;9.67;;
54679;SDS011;40578;53.178;5.846;2023-08-12T04:42:42;16.40;;;10.60;;
54679;SDS011;40578;53.178;5.846;2023-08-12T04:45:08;16.43;;;9.53;;
54679;SDS011;40578;53.178;5.846;2023-08-12T04:47:34;13.98;;;9.13;;
54679;SDS011;40578;53.178;5.846;2023-08-12T04:49:59;15.50;;;10.07;;
54679;SDS011;40578;53.178;5.846;2023-08-12T04:52:25;14.80;;;9.70;;
54679;SDS011;40578;53.178;5.846;2023-08-12T04:54:54;19.00;;;10.60;;
54679;SDS011;40578;53.178;5.846;2023-08-12T04:57:20;18.55;;;10.57;;
54679;SDS011;40578;53.178;5.846;2023-08-12T04:59:45;17.83;;;10.17;;
54679;SDS011;40578;53.178;5.846;2023-08-12T05:02:11;17.30;;;10.07;;
54679;SDS011;40578;53.178;5.846;2023-08-12T05:04:36;17.37;;;9.80;;
54679;SDS011;40578;53.178;5.846;2023-08-12T05:07:02;13.90;;;9.27;;
54679;SDS011;40578;53.178;5.846;2023-08-12T05:09:27;14.83;;;9.60;;
54679;SDS011;40578;53.178;5.846;2023-08-12T05:11:53;17.10;;;9.90;;
54679;SDS011;40578;53.178;5.846;2023-08-12T05:14:18;14.70;;;8.60;;
54679;SDS011;40578;53.178;5.846;2023-08-12T05:16:44;18.37;;;10.20;;
54679;SDS011;40578;53.178;5.846;2023-08-12T05:19:10;19.83;;;10.57;;
54679;SDS011;40578;53.178;5.846;2023-08-12T05:21:35;13.13;;;9.30;;
54679;SDS011;40578;53.178;5.846;2023-08-12T05:24:01;16.60;;;9.33;;
54679;SDS011;40578;53.178;5.846;2023-08-12T05:26:27;15.43;;;10.00;;
54679;SDS011;40578;53.178;5.846;2023-08-12T05:28:52;17.47;;;10.30;;
54679;SDS011;40578;53.178;5.846;2023-08-12T05:31:18;17.67;;;10.53;;
54679;SDS011;40578;53.178;5.846;2023-08-12T05:33:43;15.17;;;9.47;;
54679;SDS011;40578;53.178;5.846;2023-08-12T05:36:09;15.13;;;9.60;;
54679;SDS011;40578;53.178;5.846;2023-08-12T05:38:35;15.67;;;10.70;;
54679;SDS011;40578;53.178;5.846;2023-08-12T05:41:00;14.67;;;9.60;;
54679;SDS011;40578;53.178;5.846;2023-08-12T05:43:26;18.90;;;9.70;;
54679;SDS011;40578;53.178;5.846;2023-08-12T05:45:51;17.70;;;10.73;;
54679;SDS011;40578;53.178;5.846;2023-08-12T05:48:17;17.70;;;9.63;;
54679;SDS011;40578;53.178;5.846;2023-08-12T05:50:43;27.17;;;12.33;;
54679;SDS011;40578;53.178;5.846;2023-08-12T05:53:08;16.48;;;10.18;;
54679;SDS011;40578;53.178;5.846;2023-08-12T05:55:34;18.48;;;10.73;;
54679;SDS011;40578;53.178;5.846;2023-08-12T05:58:00;19.73;;;11.17;;
54679;SDS011;40578;53.178;5.846;2023-08-12T06:00:26;16.27;;;11.07;;
54679;SDS011;40578;53.178;5.846;2023-08-12T06:02:52;18.83;;;10.97;;
54679;SDS011;40578;53.178;5.846;2023-08-12T06:05:18;21.57;;;11.67;;
54679;SDS011;40578;53.178;5.846;2023-08-12T06:07:43;17.20;;;11.20;;
54679;SDS011;40578;53.178;5.846;2023-08-12T06:10:09;20.63;;;11.50;;
54679;SDS011;40578;53.178;5.846;2023-08-12T06:12:35;19.77;;;11.17;;
54679;SDS011;40578;53.178;5.846;2023-08-12T06:15:00;21.33;;;12.37;;
54679;SDS011;40578;53.178;5.846;2023-08-12T06:17:26;17.50;;;11.32;;
54679;SDS011;40578;53.178;5.846;2023-08-12T06:19:52;18.93;;;11.23;;
54679;SDS011;40578;53.178;5.846;2023-08-12T06:22:17;18.80;;;12.67;;
54679;SDS011;40578;53.178;5.846;2023-08-12T06:24:43;19.43;;;11.77;;
54679;SDS011;40578;53.178;5.846;2023-08-12T06:27:09;19.43;;;10.80;;
54679;SDS011;40578;53.178;5.846;2023-08-12T06:29:34;18.53;;;12.53;;
54679;SDS011;40578;53.178;5.846;2023-08-12T06:32:02;20.42;;;12.60;;
54679;SDS011;40578;53.178;5.846;2023-08-12T06:34:28;17.90;;;12.10;;
54679;SDS011;40578;53.178;5.846;2023-08-12T06:36:54;21.80;;;12.13;;
54679;SDS011;40578;53.178;5.846;2023-08-12T06:39:19;19.97;;;11.20;;
54679;SDS011;40578;53.178;5.846;2023-08-12T06:41:45;20.77;;;12.80;;
54679;SDS011;40578;53.178;5.846;2023-08-12T06:44:10;20.53;;;11.97;;
54679;SDS011;40578;53.178;5.846;2023-08-12T06:46:36;21.07;;;12.70;;
54679;SDS011;40578;53.178;5.846;2023-08-12T06:49:02;17.03;;;11.77;;
54679;SDS011;40578;53.178;5.846;2023-08-12T06:51:27;16.50;;;11.57;;
54679;SDS011;40578;53.178;5.846;2023-08-12T06:53:53;19.83;;;13.30;;
54679;SDS011;40578;53.178;5.846;2023-08-12T06:56:18;18.30;;;11.80;;
54679;SDS011;40578;53.178;5.846;2023-08-12T06:58:44;17.00;;;11.10;;
54679;SDS011;40578;53.178;5.846;2023-08-12T07:01:10;25.10;;;13.60;;
54679;SDS011;40578;53.178;5.846;2023-08-12T07:03:35;19.70;;;12.93;;
54679;SDS011;40578;53.178;5.846;2023-08-12T07:06:01;20.23;;;12.47;;
54679;SDS011;40578;53.178;5.846;2023-08-12T07:08:26;21.03;;;13.17;;
54679;SDS011;40578;53.178;5.846;2023-08-12T07:13:19;22.52;;;13.20;;
54679;SDS011;40578;53.178;5.846;2023-08-12T07:15:44;22.63;;;13.73;;
54679;SDS011;40578;53.178;5.846;2023-08-12T07:18:10;22.38;;;13.88;;
54679;SDS011;40578;53.178;5.846;2023-08-12T07:20:36;19.00;;;12.90;;
54679;SDS011;40578;53.178;5.846;2023-08-12T07:23:01;20.10;;;13.73;;
54679;SDS011;40578;53.178;5.846;2023-08-12T07:25:27;22.83;;;13.60;;
54679;SDS011;40578;53.178;5.846;2023-08-12T07:27:52;28.03;;;15.27;;
54679;SDS011;40578;53.178;5.846;2023-08-12T07:30:18;22.00;;;15.30;;
54679;SDS011;40578;53.178;5.846;2023-08-12T07:32:44;25.83;;;15.57;;
54679;SDS011;40578;53.178;5.846;2023-08-12T07:35:09;22.73;;;16.30;;
54679;SDS011;40578;53.178;5.846;2023-08-12T07:37:35;24.75;;;16.73;;
54679;SDS011;40578;53.178;5.846;2023-08-12T07:40:01;22.73;;;15.30;;
54679;SDS011;40578;53.178;5.846;2023-08-12T07:42:28;23.25;;;16.23;;
54679;SDS011;40578;53.178;5.846;2023-08-12T07:44:54;24.83;;;15.77;;
54679;SDS011;40578;53.178;5.846;2023-08-12T07:47:19;23.27;;;16.50;;
54679;SDS011;40578;53.178;5.846;2023-08-12T07:49:45;24.40;;;15.93;;
54679;SDS011;40578;53.178;5.846;2023-08-12T07:52:10;26.97;;;16.37;;
54679;SDS011;40578;53.178;5.846;2023-08-12T07:54:36;27.37;;;15.80;;
54679;SDS011;40578;53.178;5.846;2023-08-12T07:57:02;28.10;;;16.67;;
54679;SDS011;40578;53.178;5.846;2023-08-12T08:01:54;25.95;;;16.63;;
54679;SDS011;40578;53.178;5.846;2023-08-12T08:04:19;24.43;;;16.97;;
54679;SDS011;40578;53.178;5.846;2023-08-12T08:06:45;32.27;;;17.27;;
54679;SDS011;40578;53.178;5.846;2023-08-12T08:09:11;29.13;;;18.83;;
54679;SDS011;40578;53.178;5.846;2023-08-12T08:11:36;29.83;;;19.17;;
54679;SDS011;40578;53.178;5.846;2023-08-12T08:14:02;30.37;;;18.67;;
54679;SDS011;40578;53.178;5.846;2023-08-12T08:16:27;26.10;;;17.60;;
54679;SDS011;40578;53.178;5.846;2023-08-12T08:18:53;27.13;;;16.60;;
54679;SDS011;40578;53.178;5.846;2023-08-12T08:21:19;27.87;;;16.10;;
54679;SDS011;40578;53.178;5.846;2023-08-12T08:23:44;29.23;;;17.93;;
54679;SDS011;40578;53.178;5.846;2023-08-12T08:26:10;31.73;;;18.20;;
54679;SDS011;40578;53.178;5.846;2023-08-12T08:28:37;31.17;;;17.40;;
54679;SDS011;40578;53.178;5.846;2023-08-12T08:31:03;30.77;;;17.52;;
54679;SDS011;40578;53.178;5.846;2023-08-12T08:33:29;26.98;;;16.42;;
54679;SDS011;40578;53.178;5.846;2023-08-12T08:35:55;26.40;;;17.37;;
54679;SDS011;40578;53.178;5.846;2023-08-12T08:38:20;31.90;;;17.63;;
54679;SDS011;40578;53.178;5.846;2023-08-12T08:40:46;29.57;;;18.00;;
54679;SDS011;40578;53.178;5.846;2023-08-12T08:43:15;29.48;;;17.25;;
54679;SDS011;40578;53.178;5.846;2023-08-12T08:45:45;29.35;;;17.50;;
54679;SDS011;40578;53.178;5.846;2023-08-12T08:48:11;27.85;;;18.02;;
54679;SDS011;40578;53.178;5.846;2023-08-12T08:50:37;33.90;;;19.17;;
54679;SDS011;40578;53.178;5.846;2023-08-12T08:53:04;30.38;;;18.80;;
54679;SDS011;40578;53.178;5.846;2023-08-12T08:55:31;39.80;;;18.98;;
54679;SDS011;40578;53.178;5.846;2023-08-12T08:57:57;32.25;;;18.60;;
54679;SDS011;40578;53.178;5.846;2023-08-12T09:00:23;30.05;;;17.25;;
54679;SDS011;40578;53.178;5.846;2023-08-12T09:02:50;30.52;;;16.55;;
54679;SDS011;40578;53.178;5.846;2023-08-12T09:05:16;25.13;;;14.63;;
54679;SDS011;40578;53.178;5.846;2023-08-12T09:07:43;24.42;;;15.52;;
54679;SDS011;40578;53.178;5.846;2023-08-12T09:10:10;21.90;;;14.38;;
54679;SDS011;40578;53.178;5.846;2023-08-12T09:12:36;20.02;;;13.15;;
54679;SDS011;40578;53.178;5.846;2023-08-12T09:15:02;22.88;;;12.73;;
54679;SDS011;40578;53.178;5.846;2023-08-12T09:17:29;34.85;;;15.90;;
54679;SDS011;40578;53.178;5.846;2023-08-12T09:19:57;22.38;;;14.57;;
54679;SDS011;40578;53.178;5.846;2023-08-12T09:22:24;60.83;;;18.17;;
54679;SDS011;40578;53.178;5.846;2023-08-12T09:24:55;53.20;;;18.20;;
54679;SDS011;40578;53.178;5.846;2023-08-12T09:27:22;28.50;;;15.77;;
54679;SDS011;40578;53.178;5.846;2023-08-12T09:29:47;53.03;;;17.67;;
54679;SDS011;40578;53.178;5.846;2023-08-12T09:32:13;31.17;;;15.83;;
54679;SDS011;40578;53.178;5.846;2023-08-12T09:34:50;32.63;;;17.15;;
54679;SDS011;40578;53.178;5.846;2023-08-12T09:37:16;33.97;;;18.60;;
54679;SDS011;40578;53.178;5.846;2023-08-12T09:39:43;32.35;;;17.88;;
54679;SDS011;40578;53.178;5.846;2023-08-12T09:42:10;32.67;;;16.05;;
54679;SDS011;40578;53.178;5.846;2023-08-12T09:44:37;57.35;;;17.85;;
54679;SDS011;40578;53.178;5.846;2023-08-12T09:47:03;22.52;;;12.07;;
54679;SDS011;40578;53.178;5.846;2023-08-12T09:49:30;21.13;;;7.35;;
54679;SDS011;40578;53.178;5.846;2023-08-12T09:51:56;20.63;;;8.87;;
54679;SDS011;40578;53.178;5.846;2023-08-12T09:54:22;20.08;;;8.18;;
54679;SDS011;40578;53.178;5.846;2023-08-12T09:56:52;12.93;;;6.28;;
54679;SDS011;40578;53.178;5.846;2023-08-12T09:59:22;11.60;;;5.22;;
54679;SDS011;40578;53.178;5.846;2023-08-12T10:01:49;10.85;;;4.20;;
54679;SDS011;40578;53.178;5.846;2023-08-12T10:04:17;10.75;;;3.70;;
54679;SDS011;40578;53.178;5.846;2023-08-12T10:06:43;20.15;;;4.45;;
54679;SDS011;40578;53.178;5.846;2023-08-12T10:09:10;11.15;;;3.63;;
54679;SDS011;40578;53.178;5.846;2023-08-12T10:11:36;9.55;;;4.10;;
54679;SDS011;40578;53.178;5.846;2023-08-12T10:16:29;8.90;;;3.28;;
54679;SDS011;40578;53.178;5.846;2023-08-12T10:18:56;10.13;;;2.58;;
54679;SDS011;40578;53.178;5.846;2023-08-12T10:21:23;7.10;;;2.47;;
54679;SDS011;40578;53.178;5.846;2023-08-12T10:23:50;7.70;;;2.42;;
54679;SDS011;40578;53.178;5.846;2023-08-12T10:26:16;8.00;;;2.53;;
54679;SDS011;40578;53.178;5.846;2023-08-12T10:28:43;7.07;;;2.45;;
54679;SDS011;40578;53.178;5.846;2023-08-12T10:31:10;6.97;;;2.28;;
54679;SDS011;40578;53.178;5.846;2023-08-12T10:33:39;7.72;;;2.15;;
54679;SDS011;40578;53.178;5.846;2023-08-12T10:36:06;9.75;;;2.95;;
54679;SDS011;40578;53.178;5.846;2023-08-12T10:38:32;8.10;;;2.40;;
54679;SDS011;40578;53.178;5.846;2023-08-12T10:44:01;8.35;;;2.58;;
54679;SDS011;40578;53.178;5.846;2023-08-12T10:46:34;9.70;;;2.65;;
54679;SDS011;40578;53.178;5.846;2023-08-12T10:49:04;8.57;;;2.95;;
54679;SDS011;40578;53.178;5.846;2023-08-12T10:54:22;8.27;;;2.83;;
54679;SDS011;40578;53.178;5.846;2023-08-12T11:02:20;12.32;;;3.70;;
54679;SDS011;40578;53.178;5.846;2023-08-12T11:05:00;8.85;;;3.13;;
54679;SDS011;40578;53.178;5.846;2023-08-12T11:07:45;14.18;;;3.83;;
54679;SDS011;40578;53.178;5.846;2023-08-12T11:10:22;6.20;;;3.00;;
54679;SDS011;40578;53.178;5.846;2023-08-12T11:15:37;6.88;;;2.90;;
54679;SDS011;40578;53.178;5.846;2023-08-12T11:18:08;8.95;;;3.60;;
54679;SDS011;40578;53.178;5.846;2023-08-12T11:20:35;12.38;;;3.45;;
54679;SDS011;40578;53.178;5.846;2023-08-12T11:23:02;12.70;;;3.55;;
54679;SDS011;40578;53.178;5.846;2023-08-12T11:25:29;10.27;;;3.53;;
54679;SDS011;40578;53.178;5.846;2023-08-12T11:27:55;11.65;;;3.53;;
54679;SDS011;40578;53.178;5.846;2023-08-12T11:30:22;15.80;;;3.92;;
54679;SDS011;40578;53.178;5.846;2023-08-12T11:32:49;10.55;;;4.03;;
54679;SDS011;40578;53.178;5.846;2023-08-12T11:35:16;13.00;;;3.70;;
54679;SDS011;40578;53.178;5.846;2023-08-12T11:37:50;7.80;;;2.78;;
54679;SDS011;40578;53.178;5.846;2023-08-12T11:40:22;7.85;;;2.55;;
54679;SDS011;40578;53.178;5.846;2023-08-12T11:42:49;8.85;;;2.60;;
54679;SDS011;40578;53.178;5.846;2023-08-12T11:45:18;10.32;;;2.22;;
54679;SDS011;40578;53.178;5.846;2023-08-12T11:47:45;5.38;;;2.00;;
54679;SDS011;40578;53.178;5.846;2023-08-12T11:50:17;6.35;;;2.28;;
54679;SDS011;40578;53.178;5.846;2023-08-12T11:52:44;6.22;;;2.70;;
54679;SDS011;40578;53.178;5.846;2023-08-12T11:55:11;7.70;;;2.90;;
54679;SDS011;40578;53.178;5.846;2023-08-12T11:57:39;11.15;;;2.67;;
54679;SDS011;40578;53.178;5.846;2023-08-12T12:00:06;6.78;;;2.65;;
54679;SDS011;40578;53.178;5.846;2023-08-12T12:02:44;8.02;;;3.25;;
54679;SDS011;40578;53.178;5.846;2023-08-12T12:05:13;11.40;;;3.33;;
54679;SDS011;40578;53.178;5.846;2023-08-12T12:07:40;14.18;;;2.80;;
54679;SDS011;40578;53.178;5.846;2023-08-12T12:10:06;9.75;;;2.88;;
54679;SDS011;40578;53.178;5.846;2023-08-12T12:12:35;15.88;;;3.47;;
54679;SDS011;40578;53.178;5.846;2023-08-12T12:15:01;8.65;;;2.83;;
54679;SDS011;40578;53.178;5.846;2023-08-12T12:17:27;8.90;;;3.22;;
54679;SDS011;40578;53.178;5.846;2023-08-12T12:19:54;11.70;;;3.60;;
54679;SDS011;40578;53.178;5.846;2023-08-12T12:22:25;11.25;;;3.17;;
54679;SDS011;40578;53.178;5.846;2023-08-12T12:24:57;9.52;;;3.65;;
54679;SDS011;40578;53.178;5.846;2023-08-12T12:27:24;7.75;;;3.15;;
54679;SDS011;40578;53.178;5.846;2023-08-12T12:29:50;8.55;;;2.75;;
54679;SDS011;40578;53.178;5.846;2023-08-12T12:32:19;8.10;;;2.60;;
54679;SDS011;40578;53.178;5.846;2023-08-12T12:34:45;11.43;;;3.58;;
54679;SDS011;40578;53.178;5.846;2023-08-12T12:37:12;10.90;;;3.65;;
54679;SDS011;40578;53.178;5.846;2023-08-12T12:39:38;8.70;;;2.78;;
54679;SDS011;40578;53.178;5.846;2023-08-12T12:42:04;10.38;;;3.13;;
54679;SDS011;40578;53.178;5.846;2023-08-12T12:44:30;11.77;;;3.75;;
54679;SDS011;40578;53.178;5.846;2023-08-12T12:46:56;8.27;;;3.25;;
54679;SDS011;40578;53.178;5.846;2023-08-12T12:49:22;7.40;;;2.63;;
54679;SDS011;40578;53.178;5.846;2023-08-12T12:51:47;9.33;;;2.40;;
54679;SDS011;40578;53.178;5.846;2023-08-12T12:54:13;9.80;;;2.75;;
54679;SDS011;40578;53.178;5.846;2023-08-12T12:56:39;9.97;;;2.60;;
54679;SDS011;40578;53.178;5.846;2023-08-12T12:59:05;6.40;;;2.43;;
54679;SDS011;40578;53.178;5.846;2023-08-12T13:01:30;10.20;;;3.03;;
54679;SDS011;40578;53.178;5.846;2023-08-12T13:03:56;7.13;;;2.13;;
54679;SDS011;40578;53.178;5.846;2023-08-12T13:06:22;9.97;;;2.53;;
54679;SDS011;40578;53.178;5.846;2023-08-12T13:08:48;8.00;;;2.43;;
54679;SDS011;40578;53.178;5.846;2023-08-12T13:11:15;6.80;;;2.00;;
54679;SDS011;40578;53.178;5.846;2023-08-12T13:13:40;11.93;;;3.17;;
54679;SDS011;40578;53.178;5.846;2023-08-12T13:16:06;9.73;;;2.60;;
54679;SDS011;40578;53.178;5.846;2023-08-12T13:18:33;6.75;;;1.95;;
54679;SDS011;40578;53.178;5.846;2023-08-12T13:20:59;7.68;;;2.53;;
54679;SDS011;40578;53.178;5.846;2023-08-12T13:23:24;7.83;;;2.57;;
54679;SDS011;40578;53.178;5.846;2023-08-12T13:25:51;9.65;;;2.30;;
54679;SDS011;40578;53.178;5.846;2023-08-12T13:28:17;8.18;;;2.50;;
54679;SDS011;40578;53.178;5.846;2023-08-12T13:30:43;6.38;;;1.98;;
54679;SDS011;40578;53.178;5.846;2023-08-12T13:33:10;9.00;;;2.10;;
54679;SDS011;40578;53.178;5.846;2023-08-12T13:35:35;8.43;;;1.80;;
54679;SDS011;40578;53.178;5.846;2023-08-12T13:38:01;15.67;;;2.30;;
54679;SDS011;40578;53.178;5.846;2023-08-12T13:40:27;8.20;;;2.13;;
54679;SDS011;40578;53.178;5.846;2023-08-12T13:42:52;12.15;;;2.35;;
54679;SDS011;40578;53.178;5.846;2023-08-12T13:45:18;9.30;;;2.60;;
54679;SDS011;40578;53.178;5.846;2023-08-12T13:47:44;8.70;;;2.33;;
54679;SDS011;40578;53.178;5.846;2023-08-12T13:50:09;7.63;;;2.07;;
54679;SDS011;40578;53.178;5.846;2023-08-12T13:52:35;6.77;;;2.17;;
54679;SDS011;40578;53.178;5.846;2023-08-12T13:55:01;8.70;;;2.30;;
54679;SDS011;40578;53.178;5.846;2023-08-12T13:57:27;8.52;;;2.65;;
54679;SDS011;40578;53.178;5.846;2023-08-12T13:59:53;8.83;;;2.50;;
54679;SDS011;40578;53.178;5.846;2023-08-12T14:02:18;9.97;;;2.30;;
54679;SDS011;40578;53.178;5.846;2023-08-12T14:04:44;9.30;;;2.67;;
54679;SDS011;40578;53.178;5.846;2023-08-12T14:07:09;6.97;;;2.20;;
54679;SDS011;40578;53.178;5.846;2023-08-12T14:09:35;9.43;;;2.30;;
54679;SDS011;40578;53.178;5.846;2023-08-12T14:12:01;11.03;;;2.83;;
54679;SDS011;40578;53.178;5.846;2023-08-12T14:14:26;6.10;;;1.80;;
54679;SDS011;40578;53.178;5.846;2023-08-12T14:16:53;9.13;;;1.98;;
54679;SDS011;40578;53.178;5.846;2023-08-12T14:19:19;9.57;;;2.53;;
54679;SDS011;40578;53.178;5.846;2023-08-12T14:21:45;11.17;;;2.63;;
54679;SDS011;40578;53.178;5.846;2023-08-12T14:24:10;8.37;;;2.33;;
54679;SDS011;40578;53.178;5.846;2023-08-12T14:26:38;8.30;;;2.72;;
54679;SDS011;40578;53.178;5.846;2023-08-12T14:29:04;11.50;;;2.60;;
54679;SDS011;40578;53.178;5.846;2023-08-12T14:31:29;10.30;;;2.50;;
54679;SDS011;40578;53.178;5.846;2023-08-12T14:33:55;11.17;;;2.73;;
54679;SDS011;40578;53.178;5.846;2023-08-12T14:36:21;8.50;;;2.10;;
54679;SDS011;40578;53.178;5.846;2023-08-12T14:38:46;7.13;;;2.30;;
54679;SDS011;40578;53.178;5.846;2023-08-12T14:41:12;10.00;;;2.40;;
54679;SDS011;40578;53.178;5.846;2023-08-12T14:43:37;10.43;;;2.33;;
54679;SDS011;40578;53.178;5.846;2023-08-12T14:46:03;10.67;;;2.50;;
54679;SDS011;40578;53.178;5.846;2023-08-12T14:48:30;7.33;;;2.57;;
54679;SDS011;40578;53.178;5.846;2023-08-12T14:50:56;9.73;;;2.78;;
54679;SDS011;40578;53.178;5.846;2023-08-12T14:53:22;8.90;;;2.03;;
54679;SDS011;40578;53.178;5.846;2023-08-12T14:55:47;9.23;;;2.60;;
54679;SDS011;40578;53.178;5.846;2023-08-12T14:58:13;9.20;;;2.57;;
54679;SDS011;40578;53.178;5.846;2023-08-12T15:00:38;6.23;;;1.90;;
54679;SDS011;40578;53.178;5.846;2023-08-12T15:03:04;11.40;;;2.60;;